createdAt,value
2022-09-16T00:01:14.303Z,98550.7
2022-09-16T00:06:50.427Z,98551.9
2022-09-16T00:12:25.530Z,98550.8
2022-09-16T00:18:00.745Z,98548.7
2022-09-16T00:23:35.775Z,98549.6
2022-09-16T00:29:11.630Z,98551.6
2022-09-16T00:34:46.604Z,98549.6
2022-09-16T00:40:22.246Z,98546.6
2022-09-16T00:45:58.584Z,98540.4
2022-09-16T00:51:33.505Z,98536.9
2022-09-16T00:57:08.360Z,98535.2
2022-09-16T01:02:43.218Z,98526.3
2022-09-16T01:08:19.382Z,98523
2022-09-16T01:13:55.956Z,98521.3
2022-09-16T01:19:30.815Z,98521.2
2022-09-16T01:25:06.974Z,98522.3
2022-09-16T01:30:41.899Z,98518.7
2022-09-16T01:36:17.753Z,98515.9
2022-09-16T01:41:52.519Z,98511.4
2022-09-16T01:47:28.502Z,98508
2022-09-16T01:53:04.186Z,98507.4
2022-09-16T01:58:39.068Z,98509.6
2022-09-16T02:04:15.012Z,98514
2022-09-16T02:09:50.760Z,98517.1
2022-09-16T02:15:25.462Z,98513.3
2022-09-16T02:21:00.675Z,98507
2022-09-16T02:26:35.621Z,98505.4
2022-09-16T02:32:32.290Z,98497.3
2022-09-16T02:38:05.009Z,98493.7
2022-09-16T02:43:40.577Z,98495.2
2022-09-16T02:49:15.429Z,98485.4
2022-09-16T02:54:50.255Z,98486.4
2022-09-16T03:00:26.141Z,98488.1
2022-09-16T03:06:00.921Z,98484
2022-09-16T03:11:35.765Z,98477.4
2022-09-16T03:17:10.601Z,98472.7
2022-09-16T03:22:46.273Z,98462.2
2022-09-16T03:28:22.205Z,98458.3
2022-09-16T03:34:18.713Z,98456.7
2022-09-16T03:39:52.825Z,98456
2022-09-16T03:45:29.578Z,98455.6
2022-09-16T03:51:05.582Z,98455.7
2022-09-16T03:56:40.395Z,98457.3
2022-09-16T04:02:15.646Z,98453.6
2022-09-16T04:07:51.779Z,98451.6
2022-09-16T04:13:26.953Z,98452.5
2022-09-16T04:19:01.751Z,98457.6
2022-09-16T04:24:37.519Z,98455.1
2022-09-16T04:30:12.136Z,98452
2022-09-16T04:35:47.198Z,98455.5
2022-09-16T04:41:23.057Z,98456.8
2022-09-16T04:46:57.830Z,98461.9
2022-09-16T04:52:33.049Z,98463.5
2022-09-16T04:58:07.709Z,98466.3
2022-09-16T05:03:44.275Z,98466.5
2022-09-16T05:09:20.011Z,98461.9
2022-09-16T05:14:54.841Z,98468.5
2022-09-16T05:20:30.104Z,98479.9
2022-09-16T05:26:06.807Z,98478.2
2022-09-16T05:32:03.753Z,98487
2022-09-16T05:37:36.882Z,98495.7
2022-09-16T05:43:13.215Z,98501.5
2022-09-16T05:48:48.311Z,98509
2022-09-16T05:54:23.583Z,98515.2
2022-09-16T06:00:00.254Z,98523
2022-09-16T06:05:35.058Z,98526
2022-09-16T06:11:10.301Z,98530
2022-09-16T06:16:46.551Z,98530.4
2022-09-16T06:22:21.737Z,98536.8
2022-09-16T06:27:58.556Z,98549
2022-09-16T06:33:56.558Z,98544.1
2022-09-16T06:39:29.303Z,98550.7
2022-09-16T06:45:06.044Z,98557.6
2022-09-16T06:50:43.746Z,98563.3
2022-09-16T06:56:19.028Z,98568.7
2022-09-16T07:01:54.630Z,98572.1
2022-09-16T07:07:31.129Z,98574.2
2022-09-16T07:13:06.372Z,98572.5
2022-09-16T07:18:42.232Z,98576.1
2022-09-16T07:24:18.640Z,98576
2022-09-16T07:30:08.342Z,98581
2022-09-16T07:35:44.922Z,98585
2022-09-16T07:41:20.689Z,98593.4
2022-09-16T07:46:55.768Z,98596.5
2022-09-16T07:52:31.624Z,98597.4
2022-09-16T07:58:07.852Z,98599.1
2022-09-16T08:03:43.480Z,98600.2
2022-09-16T08:09:50.694Z,98605
2022-09-16T08:15:31.383Z,98607.5
2022-09-16T08:21:06.458Z,98616.1
2022-09-16T08:26:43.162Z,98619.7
2022-09-16T08:32:19.728Z,98620
2022-09-16T08:37:55.668Z,98623
2022-09-16T08:43:31.085Z,98622.1
2022-09-16T08:49:06.778Z,98629.4
2022-09-16T08:54:42.292Z,98631.5
2022-09-16T09:00:19.043Z,98637.5
2022-09-16T09:05:55.116Z,98633.7
2022-09-16T09:11:33.560Z,98628.4
2022-09-16T09:17:12.503Z,98631
2022-09-16T09:22:48.956Z,98632.9
2022-09-16T09:28:23.916Z,98638.3
2022-09-16T09:34:20.935Z,98644.8
2022-09-16T09:39:57.197Z,98642.6
2022-09-16T09:45:32.640Z,98645.3
2022-09-16T09:51:08.553Z,98635.5
2022-09-16T09:56:46.117Z,98634.7
2022-09-16T10:02:22.346Z,98634
2022-09-16T10:07:59.258Z,98630.4
2022-09-16T10:13:35.621Z,98628.3
2022-09-16T10:19:10.408Z,98626.9
2022-09-16T10:24:45.967Z,98624.5
2022-09-16T10:30:23.876Z,98623
2022-09-16T10:35:59.027Z,98627.9
2022-09-16T10:41:34.521Z,98628.4
2022-09-16T10:47:10.796Z,98621.5
2022-09-16T10:52:46.598Z,98619.6
2022-09-16T10:58:23.416Z,98614.5
2022-09-16T11:04:02.115Z,98617.2
2022-09-16T11:09:39.922Z,98615.8
2022-09-16T11:15:16.551Z,98616.5
2022-09-16T11:20:53.375Z,98618.9
2022-09-16T11:26:29.326Z,98611
2022-09-16T11:32:26.912Z,98606.4
2022-09-16T11:38:02.154Z,98604.2
2022-09-16T11:43:38.293Z,98600.6
2022-09-16T11:49:14.238Z,98600.6
2022-09-16T11:54:51.508Z,98602.9
2022-09-16T12:00:27.571Z,98600.6
2022-09-16T12:06:03.400Z,98595.8
2022-09-16T12:11:39.638Z,98591.5
2022-09-16T12:17:14.459Z,98591.5
2022-09-16T12:22:50.417Z,98584.2
2022-09-16T12:28:26.606Z,98574.4
2022-09-16T12:34:23.415Z,98572.6
2022-09-16T12:39:58.391Z,98581.7
2022-09-16T12:45:34.990Z,98572.8
2022-09-16T12:51:09.957Z,98563.9
2022-09-16T12:56:46.880Z,98563.4
2022-09-16T13:02:25.170Z,98567.8
2022-09-16T13:08:01.698Z,98564.5
2022-09-16T13:13:37.584Z,98565.3
2022-09-16T13:19:14.370Z,98564.4
2022-09-16T13:24:49.380Z,98558.9
2022-09-16T13:30:26.139Z,98558.2
2022-09-16T13:36:03.773Z,98554.6
2022-09-16T13:41:38.630Z,98547.8
2022-09-16T13:47:14.071Z,98554.8
2022-09-16T13:52:50.126Z,98557.9
2022-09-16T13:58:25.429Z,98545.9
2022-09-16T14:04:00.782Z,98542.8
2022-09-16T14:09:36.318Z,98538.6
2022-09-16T14:15:12.166Z,98533.9
2022-09-16T14:20:48.413Z,98539.6
2022-09-16T14:26:24.142Z,98530.6
2022-09-16T14:32:21.321Z,98524
2022-09-16T14:37:54.990Z,98525.5
2022-09-16T14:43:30.461Z,98525.7
2022-09-16T14:49:05.364Z,98531
2022-09-16T14:54:41.091Z,98531.4
2022-09-16T15:00:17.481Z,98533
2022-09-16T15:05:52.450Z,98531.7
2022-09-16T15:11:49.607Z,98530.2
2022-09-16T15:17:26.514Z,98519.6
2022-09-16T15:23:01.431Z,98524
2022-09-16T15:28:37.858Z,98525.8
2022-09-16T15:34:35.171Z,98529.9
2022-09-16T15:40:08.593Z,98527.5
2022-09-16T15:45:44.437Z,98529.1
2022-09-16T15:51:20.643Z,98537.4
2022-09-16T15:57:04.540Z,98538.6
2022-09-16T16:02:40.436Z,98533.8
2022-09-16T16:08:16.704Z,98538.3
2022-09-16T16:13:52.825Z,98536.6
2022-09-16T16:19:28.300Z,98539.8
2022-09-16T16:25:03.317Z,98543.7
2022-09-16T16:30:38.603Z,98544.5
2022-09-16T16:36:14.091Z,98546
2022-09-16T16:41:49.291Z,98543.9
2022-09-16T16:47:24.130Z,98554.5
2022-09-16T16:52:59.563Z,98558.2
2022-09-16T16:58:35.208Z,98555
2022-09-16T17:04:10.240Z,98558.5
2022-09-16T17:09:45.671Z,98559.8
2022-09-16T17:15:22.343Z,98565.6
2022-09-16T17:20:57.152Z,98566.4
2022-09-16T17:26:34.224Z,98566.6
2022-09-16T17:32:31.784Z,98569.1
2022-09-16T17:38:07.519Z,98571.7
2022-09-16T17:43:42.636Z,98575.1
2022-09-16T17:49:19.873Z,98584.6
2022-09-16T17:54:54.638Z,98585.6
2022-09-16T18:00:29.963Z,98598.3
2022-09-16T18:06:06.555Z,98604.3
2022-09-16T18:11:41.480Z,98605.1
2022-09-16T18:17:17.027Z,98607.1
2022-09-16T18:22:52.546Z,98615.5
2022-09-16T18:28:27.808Z,98620.8
2022-09-16T18:34:04.311Z,98623.3
2022-09-16T18:39:39.690Z,98628.8
2022-09-16T18:45:14.432Z,98639.2
2022-09-16T18:50:50.090Z,98652.3
2022-09-16T18:56:25.821Z,98658.1
2022-09-16T19:02:02.956Z,98666.3
2022-09-16T19:07:40.489Z,98681.4
2022-09-16T19:13:15.913Z,98689.1
2022-09-16T19:18:50.627Z,98700.6
2022-09-16T19:24:26.293Z,98705.3
2022-09-16T19:30:01.622Z,98714.7
2022-09-16T19:35:36.533Z,98716.6
2022-09-16T19:41:12.070Z,98723.9
2022-09-16T19:46:47.522Z,98730.9
2022-09-16T19:52:22.259Z,98742.8
2022-09-16T19:57:57.855Z,98745.1
2022-09-16T20:03:33.285Z,98751.4
2022-09-16T20:09:08.025Z,98756.9
2022-09-16T20:14:43.337Z,98766.9
2022-09-16T20:20:21.172Z,98779.5
2022-09-16T20:25:57.301Z,98785
2022-09-16T20:31:33.270Z,98791.8
2022-09-16T20:37:09.492Z,98803.2
2022-09-16T20:42:44.631Z,98802.3
2022-09-16T20:48:19.830Z,98803.2
2022-09-16T20:53:55.249Z,98818.7
2022-09-16T20:59:30.095Z,98823.9
2022-09-16T21:05:06.245Z,98817.4
2022-09-16T21:10:43.047Z,98823.6
2022-09-16T21:16:18.309Z,98823.3
2022-09-16T21:21:55.400Z,98822.3
2022-09-16T21:27:31.720Z,98823.4
2022-09-16T21:33:28.521Z,98814.2
2022-09-16T21:39:02.187Z,98813.5
2022-09-16T21:44:37.499Z,98816.2
2022-09-16T21:50:12.519Z,98818.4
2022-09-16T21:55:47.980Z,98817
2022-09-16T22:01:24.963Z,98823.4
2022-09-16T22:07:00.699Z,98820.7
2022-09-16T22:12:36.532Z,98823.9
2022-09-16T22:18:12.052Z,98826.2
2022-09-16T22:23:47.077Z,98821
2022-09-16T22:29:22.625Z,98825.4
2022-09-16T22:34:57.774Z,98825.9
2022-09-16T22:40:32.753Z,98830.1
2022-09-16T22:46:09.376Z,98830.3
2022-09-16T22:51:45.759Z,98823.6
2022-09-16T22:57:20.573Z,98824.4
2022-09-16T23:02:56.045Z,98827.1
2022-09-16T23:08:32.389Z,98817.7
2022-09-16T23:14:07.054Z,98821.6
2022-09-16T23:19:42.753Z,98822
2022-09-16T23:25:19.346Z,98817.1
2022-09-16T23:30:55.458Z,98813.6
2022-09-16T23:36:31.316Z,98820.4
2022-09-16T23:42:06.581Z,98817.3
2022-09-16T23:47:41.217Z,98813.5
2022-09-16T23:53:16.489Z,98810.3
2022-09-16T23:58:51.939Z,98815.4
